sensor_id;sensor_type;location;lat;lon;timestamp;P1;durP1;ratioP1;P2;durP2;ratioP2
42760;SDS011;31672;47.638;19.026;2023-07-29T00:03:57;4.50;;;2.60;;
42760;SDS011;31672;47.638;19.026;2023-07-29T00:09:01;5.82;;;2.65;;
42760;SDS011;31672;47.638;19.026;2023-07-29T00:14:06;5.70;;;2.67;;
42760;SDS011;31672;47.638;19.026;2023-07-29T00:19:09;4.38;;;3.30;;
42760;SDS011;31672;47.638;19.026;2023-07-29T00:24:13;4.97;;;2.63;;
42760;SDS011;31672;47.638;19.026;2023-07-29T00:29:16;4.25;;;2.72;;
42760;SDS011;31672;47.638;19.026;2023-07-29T00:34:20;5.88;;;2.90;;
42760;SDS011;31672;47.638;19.026;2023-07-29T00:39:23;5.30;;;3.30;;
42760;SDS011;31672;47.638;19.026;2023-07-29T00:44:27;4.97;;;3.10;;
42760;SDS011;31672;47.638;19.026;2023-07-29T00:49:30;3.90;;;3.28;;
42760;SDS011;31672;47.638;19.026;2023-07-29T00:54:35;5.75;;;3.00;;
42760;SDS011;31672;47.638;19.026;2023-07-29T00:59:38;7.72;;;3.00;;
42760;SDS011;31672;47.638;19.026;2023-07-29T01:04:43;6.28;;;3.30;;
42760;SDS011;31672;47.638;19.026;2023-07-29T01:10:03;3.97;;;2.90;;
42760;SDS011;31672;47.638;19.026;2023-07-29T01:15:33;4.90;;;3.13;;
42760;SDS011;31672;47.638;19.026;2023-07-29T01:21:07;4.00;;;2.75;;
42760;SDS011;31672;47.638;19.026;2023-07-29T01:26:13;6.07;;;2.88;;
42760;SDS011;31672;47.638;19.026;2023-07-29T01:31:27;4.63;;;2.83;;
42760;SDS011;31672;47.638;19.026;2023-07-29T01:36:47;6.93;;;2.57;;
42760;SDS011;31672;47.638;19.026;2023-07-29T01:41:54;3.67;;;3.00;;
42760;SDS011;31672;47.638;19.026;2023-07-29T01:46:59;5.53;;;3.25;;
42760;SDS011;31672;47.638;19.026;2023-07-29T01:52:03;5.05;;;2.83;;
42760;SDS011;31672;47.638;19.026;2023-07-29T01:57:07;5.45;;;2.65;;
42760;SDS011;31672;47.638;19.026;2023-07-29T02:02:11;4.28;;;3.05;;
42760;SDS011;31672;47.638;19.026;2023-07-29T02:07:14;4.72;;;2.40;;
42760;SDS011;31672;47.638;19.026;2023-07-29T02:12:18;6.10;;;3.40;;
42760;SDS011;31672;47.638;19.026;2023-07-29T02:17:21;5.13;;;3.80;;
42760;SDS011;31672;47.638;19.026;2023-07-29T02:22:25;5.82;;;3.15;;
42760;SDS011;31672;47.638;19.026;2023-07-29T02:27:28;5.05;;;2.88;;
42760;SDS011;31672;47.638;19.026;2023-07-29T02:32:32;5.60;;;2.85;;
42760;SDS011;31672;47.638;19.026;2023-07-29T02:37:36;3.90;;;2.88;;
42760;SDS011;31672;47.638;19.026;2023-07-29T02:42:40;5.30;;;2.85;;
42760;SDS011;31672;47.638;19.026;2023-07-29T02:47:43;5.88;;;3.75;;
42760;SDS011;31672;47.638;19.026;2023-07-29T02:52:47;4.97;;;2.80;;
42760;SDS011;31672;47.638;19.026;2023-07-29T02:57:53;3.75;;;2.85;;
42760;SDS011;31672;47.638;19.026;2023-07-29T03:02:57;4.22;;;2.80;;
42760;SDS011;31672;47.638;19.026;2023-07-29T03:08:00;3.45;;;3.00;;
42760;SDS011;31672;47.638;19.026;2023-07-29T03:13:04;5.45;;;3.00;;
42760;SDS011;31672;47.638;19.026;2023-07-29T03:18:08;6.68;;;4.60;;
42760;SDS011;31672;47.638;19.026;2023-07-29T03:23:11;8.82;;;4.20;;
42760;SDS011;31672;47.638;19.026;2023-07-29T03:28:15;3.78;;;2.67;;
42760;SDS011;31672;47.638;19.026;2023-07-29T03:33:19;6.13;;;3.08;;
42760;SDS011;31672;47.638;19.026;2023-07-29T03:38:22;7.15;;;2.70;;
42760;SDS011;31672;47.638;19.026;2023-07-29T03:43:26;3.63;;;2.85;;
42760;SDS011;31672;47.638;19.026;2023-07-29T03:48:29;5.78;;;2.78;;
42760;SDS011;31672;47.638;19.026;2023-07-29T03:53:34;5.32;;;3.45;;
42760;SDS011;31672;47.638;19.026;2023-07-29T03:58:39;7.28;;;2.95;;
42760;SDS011;31672;47.638;19.026;2023-07-29T04:03:42;3.38;;;2.65;;
42760;SDS011;31672;47.638;19.026;2023-07-29T04:08:48;3.65;;;2.63;;
42760;SDS011;31672;47.638;19.026;2023-07-29T04:13:51;3.63;;;2.85;;
42760;SDS011;31672;47.638;19.026;2023-07-29T04:18:55;3.13;;;2.20;;
42760;SDS011;31672;47.638;19.026;2023-07-29T04:23:59;5.78;;;2.20;;
42760;SDS011;31672;47.638;19.026;2023-07-29T04:29:02;5.63;;;2.50;;
42760;SDS011;31672;47.638;19.026;2023-07-29T04:34:06;6.78;;;3.65;;
42760;SDS011;31672;47.638;19.026;2023-07-29T04:39:10;4.85;;;2.90;;
42760;SDS011;31672;47.638;19.026;2023-07-29T04:44:13;3.47;;;2.50;;
42760;SDS011;31672;47.638;19.026;2023-07-29T04:49:17;4.10;;;2.55;;
42760;SDS011;31672;47.638;19.026;2023-07-29T04:54:20;6.30;;;2.80;;
42760;SDS011;31672;47.638;19.026;2023-07-29T04:59:24;4.60;;;2.92;;
42760;SDS011;31672;47.638;19.026;2023-07-29T05:04:28;4.20;;;2.83;;
42760;SDS011;31672;47.638;19.026;2023-07-29T05:09:31;3.80;;;2.20;;
42760;SDS011;31672;47.638;19.026;2023-07-29T05:14:35;5.53;;;2.88;;
42760;SDS011;31672;47.638;19.026;2023-07-29T05:19:38;9.25;;;3.33;;
42760;SDS011;31672;47.638;19.026;2023-07-29T05:24:42;2.90;;;2.47;;
42760;SDS011;31672;47.638;19.026;2023-07-29T05:29:46;3.30;;;2.67;;
42760;SDS011;31672;47.638;19.026;2023-07-29T05:34:49;5.28;;;2.65;;
42760;SDS011;31672;47.638;19.026;2023-07-29T05:39:53;4.38;;;2.85;;
42760;SDS011;31672;47.638;19.026;2023-07-29T05:44:57;8.65;;;3.15;;
42760;SDS011;31672;47.638;19.026;2023-07-29T05:50:00;4.95;;;2.03;;
42760;SDS011;31672;47.638;19.026;2023-07-29T05:55:07;3.70;;;2.13;;
42760;SDS011;31672;47.638;19.026;2023-07-29T06:00:11;3.92;;;3.10;;
42760;SDS011;31672;47.638;19.026;2023-07-29T06:05:16;5.55;;;2.53;;
42760;SDS011;31672;47.638;19.026;2023-07-29T06:10:19;4.80;;;2.70;;
42760;SDS011;31672;47.638;19.026;2023-07-29T06:15:23;4.53;;;2.30;;
42760;SDS011;31672;47.638;19.026;2023-07-29T06:20:26;3.13;;;2.28;;
42760;SDS011;31672;47.638;19.026;2023-07-29T06:25:30;3.40;;;1.92;;
42760;SDS011;31672;47.638;19.026;2023-07-29T06:30:33;3.15;;;2.10;;
42760;SDS011;31672;47.638;19.026;2023-07-29T06:35:37;3.63;;;1.95;;
42760;SDS011;31672;47.638;19.026;2023-07-29T06:40:41;3.38;;;1.83;;
42760;SDS011;31672;47.638;19.026;2023-07-29T06:45:44;2.25;;;1.88;;
42760;SDS011;31672;47.638;19.026;2023-07-29T06:50:48;3.30;;;2.10;;
42760;SDS011;31672;47.638;19.026;2023-07-29T06:55:53;2.30;;;1.88;;
42760;SDS011;31672;47.638;19.026;2023-07-29T07:00:57;3.53;;;1.80;;
42760;SDS011;31672;47.638;19.026;2023-07-29T07:06:02;4.63;;;1.98;;
42760;SDS011;31672;47.638;19.026;2023-07-29T07:11:06;3.42;;;1.80;;
42760;SDS011;31672;47.638;19.026;2023-07-29T07:16:09;2.72;;;1.67;;
42760;SDS011;31672;47.638;19.026;2023-07-29T07:21:13;2.08;;;1.67;;
42760;SDS011;31672;47.638;19.026;2023-07-29T07:26:16;1.73;;;1.50;;
42760;SDS011;31672;47.638;19.026;2023-07-29T07:31:20;8.32;;;1.70;;
42760;SDS011;31672;47.638;19.026;2023-07-29T07:36:25;3.53;;;2.22;;
42760;SDS011;31672;47.638;19.026;2023-07-29T07:41:29;2.38;;;1.63;;
42760;SDS011;31672;47.638;19.026;2023-07-29T07:46:32;2.92;;;1.17;;
42760;SDS011;31672;47.638;19.026;2023-07-29T07:51:36;2.30;;;1.52;;
42760;SDS011;31672;47.638;19.026;2023-07-29T07:56:40;4.25;;;1.98;;
42760;SDS011;31672;47.638;19.026;2023-07-29T08:01:43;1.88;;;1.50;;
42760;SDS011;31672;47.638;19.026;2023-07-29T08:06:47;2.38;;;1.42;;
42760;SDS011;31672;47.638;19.026;2023-07-29T08:11:50;2.65;;;1.48;;
42760;SDS011;31672;47.638;19.026;2023-07-29T08:16:54;1.50;;;1.20;;
42760;SDS011;31672;47.638;19.026;2023-07-29T08:21:57;1.98;;;1.27;;
42760;SDS011;31672;47.638;19.026;2023-07-29T08:27:02;1.55;;;1.30;;
42760;SDS011;31672;47.638;19.026;2023-07-29T08:32:06;3.55;;;1.10;;
42760;SDS011;31672;47.638;19.026;2023-07-29T08:37:09;1.67;;;1.15;;
42760;SDS011;31672;47.638;19.026;2023-07-29T08:42:13;1.40;;;1.20;;
42760;SDS011;31672;47.638;19.026;2023-07-29T08:47:21;4.40;;;1.40;;
42760;SDS011;31672;47.638;19.026;2023-07-29T08:52:25;1.75;;;1.20;;
42760;SDS011;31672;47.638;19.026;2023-07-29T08:57:30;1.55;;;1.10;;
42760;SDS011;31672;47.638;19.026;2023-07-29T09:02:33;1.77;;;1.10;;
42760;SDS011;31672;47.638;19.026;2023-07-29T09:07:37;1.35;;;1.00;;
42760;SDS011;31672;47.638;19.026;2023-07-29T09:12:42;2.17;;;1.30;;
42760;SDS011;31672;47.638;19.026;2023-07-29T09:17:46;1.55;;;0.98;;
42760;SDS011;31672;47.638;19.026;2023-07-29T09:22:50;1.00;;;0.90;;
42760;SDS011;31672;47.638;19.026;2023-07-29T09:28:00;1.50;;;1.17;;
42760;SDS011;31672;47.638;19.026;2023-07-29T09:33:10;1.42;;;1.00;;
42760;SDS011;31672;47.638;19.026;2023-07-29T09:38:14;3.30;;;1.20;;
42760;SDS011;31672;47.638;19.026;2023-07-29T09:43:18;1.42;;;1.08;;
42760;SDS011;31672;47.638;19.026;2023-07-29T09:48:22;2.22;;;1.00;;
42760;SDS011;31672;47.638;19.026;2023-07-29T09:53:26;1.17;;;0.98;;
42760;SDS011;31672;47.638;19.026;2023-07-29T09:58:30;3.38;;;1.10;;
42760;SDS011;31672;47.638;19.026;2023-07-29T10:03:33;2.88;;;1.00;;
42760;SDS011;31672;47.638;19.026;2023-07-29T10:08:39;2.65;;;1.05;;
42760;SDS011;31672;47.638;19.026;2023-07-29T10:13:43;3.15;;;0.90;;
42760;SDS011;31672;47.638;19.026;2023-07-29T10:19:08;1.00;;;0.70;;
42760;SDS011;31672;47.638;19.026;2023-07-29T10:24:14;1.48;;;1.00;;
42760;SDS011;31672;47.638;19.026;2023-07-29T10:29:23;1.35;;;0.80;;
42760;SDS011;31672;47.638;19.026;2023-07-29T10:34:27;1.63;;;1.00;;
42760;SDS011;31672;47.638;19.026;2023-07-29T10:39:39;1.80;;;0.90;;
42760;SDS011;31672;47.638;19.026;2023-07-29T10:49:56;2.30;;;0.90;;
42760;SDS011;31672;47.638;19.026;2023-07-29T10:55:01;1.48;;;0.88;;
42760;SDS011;31672;47.638;19.026;2023-07-29T11:00:07;2.08;;;0.90;;
42760;SDS011;31672;47.638;19.026;2023-07-29T11:05:17;1.45;;;1.02;;
42760;SDS011;31672;47.638;19.026;2023-07-29T11:10:21;1.10;;;0.82;;
42760;SDS011;31672;47.638;19.026;2023-07-29T11:15:26;2.83;;;1.02;;
42760;SDS011;31672;47.638;19.026;2023-07-29T11:20:32;1.98;;;0.93;;
42760;SDS011;31672;47.638;19.026;2023-07-29T11:25:37;3.20;;;1.00;;
42760;SDS011;31672;47.638;19.026;2023-07-29T11:30:41;2.00;;;1.30;;
42760;SDS011;31672;47.638;19.026;2023-07-29T11:35:44;1.70;;;1.10;;
42760;SDS011;31672;47.638;19.026;2023-07-29T11:40:55;1.33;;;1.00;;
42760;SDS011;31672;47.638;19.026;2023-07-29T11:46:03;1.58;;;1.27;;
42760;SDS011;31672;47.638;19.026;2023-07-29T11:51:06;2.90;;;1.13;;
42760;SDS011;31672;47.638;19.026;2023-07-29T11:56:10;1.65;;;1.10;;
42760;SDS011;31672;47.638;19.026;2023-07-29T12:01:15;1.25;;;1.00;;
42760;SDS011;31672;47.638;19.026;2023-07-29T12:06:19;1.67;;;1.17;;
42760;SDS011;31672;47.638;19.026;2023-07-29T12:11:23;1.75;;;1.10;;
42760;SDS011;31672;47.638;19.026;2023-07-29T12:16:27;3.45;;;1.00;;
42760;SDS011;31672;47.638;19.026;2023-07-29T12:21:38;1.17;;;0.90;;
42760;SDS011;31672;47.638;19.026;2023-07-29T12:26:43;2.47;;;1.20;;
42760;SDS011;31672;47.638;19.026;2023-07-29T12:31:47;1.33;;;1.02;;
42760;SDS011;31672;47.638;19.026;2023-07-29T12:36:51;1.25;;;0.98;;
42760;SDS011;31672;47.638;19.026;2023-07-29T12:41:57;1.50;;;1.10;;
42760;SDS011;31672;47.638;19.026;2023-07-29T12:47:02;1.88;;;1.00;;
42760;SDS011;31672;47.638;19.026;2023-07-29T12:52:08;2.63;;;1.30;;
42760;SDS011;31672;47.638;19.026;2023-07-29T12:57:11;1.50;;;1.10;;
42760;SDS011;31672;47.638;19.026;2023-07-29T13:02:15;2.97;;;1.00;;
42760;SDS011;31672;47.638;19.026;2023-07-29T13:07:18;3.35;;;1.05;;
42760;SDS011;31672;47.638;19.026;2023-07-29T13:12:22;1.20;;;1.10;;
42760;SDS011;31672;47.638;19.026;2023-07-29T13:17:26;2.03;;;1.40;;
42760;SDS011;31672;47.638;19.026;2023-07-29T13:22:29;1.63;;;1.23;;
42760;SDS011;31672;47.638;19.026;2023-07-29T13:27:33;2.08;;;1.30;;
42760;SDS011;31672;47.638;19.026;2023-07-29T13:32:37;1.40;;;1.20;;
42760;SDS011;31672;47.638;19.026;2023-07-29T13:37:40;2.83;;;1.45;;
42760;SDS011;31672;47.638;19.026;2023-07-29T13:42:44;2.30;;;1.40;;
42760;SDS011;31672;47.638;19.026;2023-07-29T13:47:48;1.38;;;1.10;;
42760;SDS011;31672;47.638;19.026;2023-07-29T13:52:53;2.45;;;1.50;;
42760;SDS011;31672;47.638;19.026;2023-07-29T13:57:56;2.13;;;1.23;;
42760;SDS011;31672;47.638;19.026;2023-07-29T14:03:00;1.20;;;1.10;;
42760;SDS011;31672;47.638;19.026;2023-07-29T14:08:03;1.58;;;1.20;;
42760;SDS011;31672;47.638;19.026;2023-07-29T14:13:07;1.30;;;1.00;;
42760;SDS011;31672;47.638;19.026;2023-07-29T14:18:10;1.63;;;1.20;;
42760;SDS011;31672;47.638;19.026;2023-07-29T14:23:14;2.20;;;1.20;;
42760;SDS011;31672;47.638;19.026;2023-07-29T14:28:18;1.95;;;1.30;;
42760;SDS011;31672;47.638;19.026;2023-07-29T14:33:21;1.83;;;1.25;;
42760;SDS011;31672;47.638;19.026;2023-07-29T14:38:25;1.23;;;1.00;;
42760;SDS011;31672;47.638;19.026;2023-07-29T14:43:30;3.42;;;1.30;;
42760;SDS011;31672;47.638;19.026;2023-07-29T14:48:33;1.65;;;1.10;;
42760;SDS011;31672;47.638;19.026;2023-07-29T14:53:38;1.83;;;1.15;;
42760;SDS011;31672;47.638;19.026;2023-07-29T14:58:42;2.17;;;1.30;;
42760;SDS011;31672;47.638;19.026;2023-07-29T15:03:46;1.70;;;1.30;;
42760;SDS011;31672;47.638;19.026;2023-07-29T15:08:50;1.88;;;1.30;;
42760;SDS011;31672;47.638;19.026;2023-07-29T15:13:53;2.78;;;1.30;;
42760;SDS011;31672;47.638;19.026;2023-07-29T15:18:57;1.98;;;1.30;;
42760;SDS011;31672;47.638;19.026;2023-07-29T15:24:01;2.13;;;1.40;;
42760;SDS011;31672;47.638;19.026;2023-07-29T15:29:04;2.53;;;1.60;;
42760;SDS011;31672;47.638;19.026;2023-07-29T15:34:10;1.88;;;1.27;;
42760;SDS011;31672;47.638;19.026;2023-07-29T15:39:13;2.38;;;1.45;;
42760;SDS011;31672;47.638;19.026;2023-07-29T15:44:17;2.38;;;1.30;;
42760;SDS011;31672;47.638;19.026;2023-07-29T15:49:21;2.22;;;1.70;;
42760;SDS011;31672;47.638;19.026;2023-07-29T15:54:25;2.50;;;1.42;;
42760;SDS011;31672;47.638;19.026;2023-07-29T15:59:28;1.65;;;1.23;;
42760;SDS011;31672;47.638;19.026;2023-07-29T16:04:35;2.17;;;1.50;;
42760;SDS011;31672;47.638;19.026;2023-07-29T16:09:38;3.25;;;1.50;;
42760;SDS011;31672;47.638;19.026;2023-07-29T16:14:42;1.58;;;1.20;;
42760;SDS011;31672;47.638;19.026;2023-07-29T16:19:56;2.15;;;1.40;;
42760;SDS011;31672;47.638;19.026;2023-07-29T16:25:03;5.18;;;1.58;;
42760;SDS011;31672;47.638;19.026;2023-07-29T16:30:07;2.28;;;1.38;;
42760;SDS011;31672;47.638;19.026;2023-07-29T16:35:11;2.08;;;1.30;;
42760;SDS011;31672;47.638;19.026;2023-07-29T16:40:15;3.08;;;1.20;;
42760;SDS011;31672;47.638;19.026;2023-07-29T16:45:19;1.75;;;1.40;;
42760;SDS011;31672;47.638;19.026;2023-07-29T16:50:23;1.73;;;1.30;;
42760;SDS011;31672;47.638;19.026;2023-07-29T16:55:26;2.67;;;1.65;;
42760;SDS011;31672;47.638;19.026;2023-07-29T17:00:31;3.33;;;1.90;;
42760;SDS011;31672;47.638;19.026;2023-07-29T17:05:35;2.45;;;1.58;;
42760;SDS011;31672;47.638;19.026;2023-07-29T17:10:39;1.80;;;1.48;;
42760;SDS011;31672;47.638;19.026;2023-07-29T17:15:43;3.03;;;1.60;;
42760;SDS011;31672;47.638;19.026;2023-07-29T17:20:47;4.68;;;1.70;;
42760;SDS011;31672;47.638;19.026;2023-07-29T17:25:50;2.72;;;1.52;;
42760;SDS011;31672;47.638;19.026;2023-07-29T17:30:54;3.60;;;1.63;;
42760;SDS011;31672;47.638;19.026;2023-07-29T17:35:57;2.85;;;1.52;;
42760;SDS011;31672;47.638;19.026;2023-07-29T17:41:01;2.33;;;1.38;;
42760;SDS011;31672;47.638;19.026;2023-07-29T17:46:05;2.70;;;1.15;;
42760;SDS011;31672;47.638;19.026;2023-07-29T17:51:09;1.42;;;0.93;;
42760;SDS011;31672;47.638;19.026;2023-07-29T17:56:12;1.52;;;0.75;;
42760;SDS011;31672;47.638;19.026;2023-07-29T18:01:16;1.60;;;1.02;;
42760;SDS011;31672;47.638;19.026;2023-07-29T18:06:19;1.40;;;0.90;;
42760;SDS011;31672;47.638;19.026;2023-07-29T18:11:23;1.52;;;0.98;;
42760;SDS011;31672;47.638;19.026;2023-07-29T18:16:27;1.30;;;0.90;;
42760;SDS011;31672;47.638;19.026;2023-07-29T18:21:30;3.88;;;0.90;;
42760;SDS011;31672;47.638;19.026;2023-07-29T18:26:34;1.80;;;1.13;;
42760;SDS011;31672;47.638;19.026;2023-07-29T18:31:38;2.08;;;1.40;;
42760;SDS011;31672;47.638;19.026;2023-07-29T18:36:41;2.42;;;1.10;;
42760;SDS011;31672;47.638;19.026;2023-07-29T18:41:48;1.48;;;1.13;;
42760;SDS011;31672;47.638;19.026;2023-07-29T18:46:51;3.90;;;2.28;;
42760;SDS011;31672;47.638;19.026;2023-07-29T18:51:56;3.17;;;1.52;;
42760;SDS011;31672;47.638;19.026;2023-07-29T18:57:00;4.38;;;1.60;;
42760;SDS011;31672;47.638;19.026;2023-07-29T19:02:04;4.32;;;1.20;;
42760;SDS011;31672;47.638;19.026;2023-07-29T19:07:09;1.70;;;1.42;;
42760;SDS011;31672;47.638;19.026;2023-07-29T19:12:13;3.25;;;2.22;;
42760;SDS011;31672;47.638;19.026;2023-07-29T19:17:16;2.22;;;1.60;;
42760;SDS011;31672;47.638;19.026;2023-07-29T19:22:20;2.00;;;1.52;;
42760;SDS011;31672;47.638;19.026;2023-07-29T19:27:23;2.17;;;1.40;;
42760;SDS011;31672;47.638;19.026;2023-07-29T19:32:27;2.75;;;1.15;;
42760;SDS011;31672;47.638;19.026;2023-07-29T19:37:31;2.13;;;1.35;;
42760;SDS011;31672;47.638;19.026;2023-07-29T19:42:34;1.80;;;1.10;;
42760;SDS011;31672;47.638;19.026;2023-07-29T19:47:38;1.77;;;1.10;;
42760;SDS011;31672;47.638;19.026;2023-07-29T19:52:41;1.65;;;1.20;;
42760;SDS011;31672;47.638;19.026;2023-07-29T19:57:45;1.80;;;1.20;;
42760;SDS011;31672;47.638;19.026;2023-07-29T20:02:49;1.63;;;1.02;;
42760;SDS011;31672;47.638;19.026;2023-07-29T20:07:52;2.38;;;1.25;;
42760;SDS011;31672;47.638;19.026;2023-07-29T20:12:56;1.60;;;1.13;;
42760;SDS011;31672;47.638;19.026;2023-07-29T20:17:59;3.38;;;1.13;;
42760;SDS011;31672;47.638;19.026;2023-07-29T20:23:03;2.10;;;1.40;;
42760;SDS011;31672;47.638;19.026;2023-07-29T20:28:07;2.28;;;1.10;;
42760;SDS011;31672;47.638;19.026;2023-07-29T20:33:11;1.70;;;1.20;;
42760;SDS011;31672;47.638;19.026;2023-07-29T20:38:15;2.00;;;1.40;;
42760;SDS011;31672;47.638;19.026;2023-07-29T20:43:19;2.10;;;1.30;;
42760;SDS011;31672;47.638;19.026;2023-07-29T20:48:24;1.92;;;1.38;;
42760;SDS011;31672;47.638;19.026;2023-07-29T20:53:28;1.58;;;1.15;;
42760;SDS011;31672;47.638;19.026;2023-07-29T20:58:32;1.60;;;1.20;;
42760;SDS011;31672;47.638;19.026;2023-07-29T21:03:36;1.90;;;0.90;;
42760;SDS011;31672;47.638;19.026;2023-07-29T21:08:40;1.27;;;0.98;;
42760;SDS011;31672;47.638;19.026;2023-07-29T21:13:44;1.65;;;1.10;;
42760;SDS011;31672;47.638;19.026;2023-07-29T21:18:48;1.60;;;0.95;;
42760;SDS011;31672;47.638;19.026;2023-07-29T21:23:52;2.40;;;1.52;;
42760;SDS011;31672;47.638;19.026;2023-07-29T21:28:55;1.67;;;1.05;;
42760;SDS011;31672;47.638;19.026;2023-07-29T21:33:59;1.70;;;1.17;;
42760;SDS011;31672;47.638;19.026;2023-07-29T21:39:03;1.35;;;1.00;;
42760;SDS011;31672;47.638;19.026;2023-07-29T21:44:07;1.35;;;1.15;;
42760;SDS011;31672;47.638;19.026;2023-07-29T21:49:10;2.15;;;1.30;;
42760;SDS011;31672;47.638;19.026;2023-07-29T21:54:14;1.67;;;1.00;;
42760;SDS011;31672;47.638;19.026;2023-07-29T21:59:17;2.60;;;1.13;;
42760;SDS011;31672;47.638;19.026;2023-07-29T22:04:21;1.92;;;1.00;;
42760;SDS011;31672;47.638;19.026;2023-07-29T22:09:25;2.17;;;1.10;;
42760;SDS011;31672;47.638;19.026;2023-07-29T22:14:28;1.38;;;1.00;;
42760;SDS011;31672;47.638;19.026;2023-07-29T22:19:31;1.42;;;1.23;;
42760;SDS011;31672;47.638;19.026;2023-07-29T22:24:35;1.27;;;0.93;;
42760;SDS011;31672;47.638;19.026;2023-07-29T22:29:39;1.98;;;1.10;;
42760;SDS011;31672;47.638;19.026;2023-07-29T22:34:42;1.30;;;0.88;;
42760;SDS011;31672;47.638;19.026;2023-07-29T22:39:46;1.48;;;1.00;;
42760;SDS011;31672;47.638;19.026;2023-07-29T22:44:51;1.30;;;0.93;;
42760;SDS011;31672;47.638;19.026;2023-07-29T22:49:54;1.73;;;1.00;;
42760;SDS011;31672;47.638;19.026;2023-07-29T22:54:58;1.88;;;1.10;;
42760;SDS011;31672;47.638;19.026;2023-07-29T23:00:02;2.17;;;0.90;;
42760;SDS011;31672;47.638;19.026;2023-07-29T23:05:06;1.65;;;1.13;;
42760;SDS011;31672;47.638;19.026;2023-07-29T23:10:11;1.50;;;0.80;;
42760;SDS011;31672;47.638;19.026;2023-07-29T23:15:14;4.00;;;1.35;;
42760;SDS011;31672;47.638;19.026;2023-07-29T23:20:18;2.83;;;1.08;;
42760;SDS011;31672;47.638;19.026;2023-07-29T23:25:21;1.42;;;1.00;;
42760;SDS011;31672;47.638;19.026;2023-07-29T23:30:25;1.40;;;1.00;;
42760;SDS011;31672;47.638;19.026;2023-07-29T23:35:28;1.90;;;1.13;;
42760;SDS011;31672;47.638;19.026;2023-07-29T23:40:32;2.55;;;1.00;;
42760;SDS011;31672;47.638;19.026;2023-07-29T23:45:36;1.50;;;0.90;;
42760;SDS011;31672;47.638;19.026;2023-07-29T23:50:39;1.85;;;0.95;;
42760;SDS011;31672;47.638;19.026;2023-07-29T23:55:44;1.58;;;1.20;;
